sensor_id;sensor_type;location;lat;lon;timestamp;temperature;humidity
78325;DHT22;67584;51.400;6.692;2023-07-16T00:00:28;18.20;87.80
78325;DHT22;67584;51.400;6.692;2023-07-16T00:02:56;18.10;87.40
78325;DHT22;67584;51.400;6.692;2023-07-16T00:05:22;18.10;87.70
78325;DHT22;67584;51.400;6.692;2023-07-16T00:07:48;18.10;87.50
78325;DHT22;67584;51.400;6.692;2023-07-16T00:10:14;18.20;88.00
78325;DHT22;67584;51.400;6.692;2023-07-16T00:12:39;18.10;87.80
78325;DHT22;67584;51.400;6.692;2023-07-16T00:15:06;18.20;88.20
78325;DHT22;67584;51.400;6.692;2023-07-16T00:17:33;18.20;89.00
78325;DHT22;67584;51.400;6.692;2023-07-16T00:19:58;18.20;88.90
78325;DHT22;67584;51.400;6.692;2023-07-16T00:22:24;18.20;88.70
78325;DHT22;67584;51.400;6.692;2023-07-16T00:24:50;18.10;89.20
78325;DHT22;67584;51.400;6.692;2023-07-16T00:27:15;18.10;89.40
78325;DHT22;67584;51.400;6.692;2023-07-16T00:29:41;18.00;89.50
78325;DHT22;67584;51.400;6.692;2023-07-16T00:32:07;18.00;89.40
78325;DHT22;67584;51.400;6.692;2023-07-16T00:34:32;17.90;88.80
78325;DHT22;67584;51.400;6.692;2023-07-16T00:36:58;17.90;89.30
78325;DHT22;67584;51.400;6.692;2023-07-16T00:39:30;17.80;89.30
78325;DHT22;67584;51.400;6.692;2023-07-16T00:41:56;17.80;89.70
78325;DHT22;67584;51.400;6.692;2023-07-16T00:44:22;17.70;89.40
78325;DHT22;67584;51.400;6.692;2023-07-16T00:46:48;17.60;89.70
78325;DHT22;67584;51.400;6.692;2023-07-16T00:49:14;17.60;90.10
78325;DHT22;67584;51.400;6.692;2023-07-16T00:51:40;17.50;90.30
78325;DHT22;67584;51.400;6.692;2023-07-16T00:54:06;17.50;90.70
78325;DHT22;67584;51.400;6.692;2023-07-16T00:56:32;17.40;90.30
78325;DHT22;67584;51.400;6.692;2023-07-16T00:58:58;17.30;90.10
78325;DHT22;67584;51.400;6.692;2023-07-16T01:01:24;17.20;90.50
78325;DHT22;67584;51.400;6.692;2023-07-16T01:03:50;17.20;90.50
78325;DHT22;67584;51.400;6.692;2023-07-16T01:06:18;17.20;90.60
78325;DHT22;67584;51.400;6.692;2023-07-16T01:09:02;17.10;90.40
78325;DHT22;67584;51.400;6.692;2023-07-16T01:11:29;17.00;91.10
78325;DHT22;67584;51.400;6.692;2023-07-16T01:13:55;17.00;91.00
78325;DHT22;67584;51.400;6.692;2023-07-16T01:16:23;16.90;91.40
78325;DHT22;67584;51.400;6.692;2023-07-16T01:18:49;16.90;91.10
78325;DHT22;67584;51.400;6.692;2023-07-16T01:21:19;17.00;91.00
78325;DHT22;67584;51.400;6.692;2023-07-16T01:32:00;16.80;91.50
78325;DHT22;67584;51.400;6.692;2023-07-16T01:34:29;16.80;91.30
78325;DHT22;67584;51.400;6.692;2023-07-16T01:36:56;17.10;91.50
78325;DHT22;67584;51.400;6.692;2023-07-16T01:39:22;17.00;91.40
78325;DHT22;67584;51.400;6.692;2023-07-16T01:41:48;17.00;91.40
78325;DHT22;67584;51.400;6.692;2023-07-16T01:44:13;17.00;91.30
78325;DHT22;67584;51.400;6.692;2023-07-16T01:46:39;16.90;91.20
78325;DHT22;67584;51.400;6.692;2023-07-16T01:49:04;17.00;91.60
78325;DHT22;67584;51.400;6.692;2023-07-16T01:51:30;16.90;91.70
78325;DHT22;67584;51.400;6.692;2023-07-16T01:53:56;17.00;91.40
78325;DHT22;67584;51.400;6.692;2023-07-16T01:56:23;17.00;91.30
78325;DHT22;67584;51.400;6.692;2023-07-16T01:58:48;17.10;91.40
78325;DHT22;67584;51.400;6.692;2023-07-16T02:01:14;17.10;91.10
78325;DHT22;67584;51.400;6.692;2023-07-16T02:03:39;17.00;90.90
78325;DHT22;67584;51.400;6.692;2023-07-16T02:06:05;17.00;90.80
78325;DHT22;67584;51.400;6.692;2023-07-16T02:08:33;16.90;91.00
78325;DHT22;67584;51.400;6.692;2023-07-16T02:10:58;16.80;90.70
78325;DHT22;67584;51.400;6.692;2023-07-16T02:13:24;16.70;90.90
78325;DHT22;67584;51.400;6.692;2023-07-16T02:15:50;16.60;90.80
78325;DHT22;67584;51.400;6.692;2023-07-16T02:18:15;16.70;90.90
78325;DHT22;67584;51.400;6.692;2023-07-16T02:20:41;16.60;91.00
78325;DHT22;67584;51.400;6.692;2023-07-16T02:23:08;16.60;91.00
78325;DHT22;67584;51.400;6.692;2023-07-16T02:25:34;16.60;91.20
78325;DHT22;67584;51.400;6.692;2023-07-16T02:27:59;16.70;91.20
78325;DHT22;67584;51.400;6.692;2023-07-16T02:30:25;16.50;91.00
78325;DHT22;67584;51.400;6.692;2023-07-16T02:32:51;16.50;91.00
78325;DHT22;67584;51.400;6.692;2023-07-16T02:35:17;16.60;90.90
78325;DHT22;67584;51.400;6.692;2023-07-16T02:37:42;16.50;91.00
78325;DHT22;67584;51.400;6.692;2023-07-16T02:40:08;16.60;90.90
78325;DHT22;67584;51.400;6.692;2023-07-16T02:42:34;16.60;90.70
78325;DHT22;67584;51.400;6.692;2023-07-16T02:45:00;16.50;90.60
78325;DHT22;67584;51.400;6.692;2023-07-16T02:47:25;16.50;90.80
78325;DHT22;67584;51.400;6.692;2023-07-16T02:49:51;16.50;90.80
78325;DHT22;67584;51.400;6.692;2023-07-16T02:52:17;16.40;90.70
78325;DHT22;67584;51.400;6.692;2023-07-16T02:54:43;16.40;90.70
78325;DHT22;67584;51.400;6.692;2023-07-16T02:57:09;16.40;90.90
78325;DHT22;67584;51.400;6.692;2023-07-16T02:59:34;16.30;90.90
78325;DHT22;67584;51.400;6.692;2023-07-16T03:02:00;16.40;91.00
78325;DHT22;67584;51.400;6.692;2023-07-16T03:04:26;16.40;91.10
78325;DHT22;67584;51.400;6.692;2023-07-16T03:06:51;16.40;90.70
78325;DHT22;67584;51.400;6.692;2023-07-16T03:09:17;16.40;90.70
78325;DHT22;67584;51.400;6.692;2023-07-16T03:11:43;16.30;90.50
78325;DHT22;67584;51.400;6.692;2023-07-16T03:14:09;16.50;90.10
78325;DHT22;67584;51.400;6.692;2023-07-16T03:16:34;16.50;89.90
78325;DHT22;67584;51.400;6.692;2023-07-16T03:19:00;16.40;89.80
78325;DHT22;67584;51.400;6.692;2023-07-16T03:21:26;16.50;89.70
78325;DHT22;67584;51.400;6.692;2023-07-16T03:23:51;16.40;89.50
78325;DHT22;67584;51.400;6.692;2023-07-16T03:26:17;16.50;89.00
78325;DHT22;67584;51.400;6.692;2023-07-16T03:28:43;16.40;88.80
78325;DHT22;67584;51.400;6.692;2023-07-16T03:31:10;16.50;88.50
78325;DHT22;67584;51.400;6.692;2023-07-16T03:33:39;16.50;88.20
78325;DHT22;67584;51.400;6.692;2023-07-16T03:36:06;16.60;87.20
78325;DHT22;67584;51.400;6.692;2023-07-16T03:38:32;16.50;86.40
78325;DHT22;67584;51.400;6.692;2023-07-16T03:40:57;16.50;86.60
78325;DHT22;67584;51.400;6.692;2023-07-16T03:43:24;16.50;85.90
78325;DHT22;67584;51.400;6.692;2023-07-16T03:45:51;16.50;85.90
78325;DHT22;67584;51.400;6.692;2023-07-16T03:48:17;16.50;85.90
78325;DHT22;67584;51.400;6.692;2023-07-16T03:50:42;16.40;86.00
78325;DHT22;67584;51.400;6.692;2023-07-16T03:53:08;16.30;86.10
78325;DHT22;67584;51.400;6.692;2023-07-16T03:55:34;16.30;85.80
78325;DHT22;67584;51.400;6.692;2023-07-16T03:58:00;16.40;85.70
78325;DHT22;67584;51.400;6.692;2023-07-16T04:00:26;16.40;85.30
78325;DHT22;67584;51.400;6.692;2023-07-16T04:02:52;16.30;85.50
78325;DHT22;67584;51.400;6.692;2023-07-16T04:05:18;16.30;85.60
78325;DHT22;67584;51.400;6.692;2023-07-16T04:07:44;16.20;85.90
78325;DHT22;67584;51.400;6.692;2023-07-16T04:10:09;16.20;85.70
78325;DHT22;67584;51.400;6.692;2023-07-16T04:12:35;16.20;85.40
78325;DHT22;67584;51.400;6.692;2023-07-16T04:15:06;16.20;84.90
78325;DHT22;67584;51.400;6.692;2023-07-16T04:17:32;16.30;85.00
78325;DHT22;67584;51.400;6.692;2023-07-16T04:19:57;16.40;84.30
78325;DHT22;67584;51.400;6.692;2023-07-16T04:22:23;16.30;84.00
78325;DHT22;67584;51.400;6.692;2023-07-16T04:24:48;16.50;83.40
78325;DHT22;67584;51.400;6.692;2023-07-16T04:27:14;16.40;83.60
78325;DHT22;67584;51.400;6.692;2023-07-16T04:29:40;16.50;83.00
78325;DHT22;67584;51.400;6.692;2023-07-16T04:32:06;16.50;82.90
78325;DHT22;67584;51.400;6.692;2023-07-16T04:34:31;16.50;83.10
78325;DHT22;67584;51.400;6.692;2023-07-16T04:36:57;16.50;82.50
78325;DHT22;67584;51.400;6.692;2023-07-16T04:39:22;16.50;82.50
78325;DHT22;67584;51.400;6.692;2023-07-16T04:41:48;16.50;82.40
78325;DHT22;67584;51.400;6.692;2023-07-16T04:44:14;16.50;82.10
78325;DHT22;67584;51.400;6.692;2023-07-16T04:46:39;16.70;81.70
78325;DHT22;67584;51.400;6.692;2023-07-16T04:49:05;16.80;80.00
78325;DHT22;67584;51.400;6.692;2023-07-16T04:51:31;16.80;78.90
78325;DHT22;67584;51.400;6.692;2023-07-16T04:53:57;17.00;79.10
78325;DHT22;67584;51.400;6.692;2023-07-16T04:56:23;17.00;79.40
78325;DHT22;67584;51.400;6.692;2023-07-16T04:58:49;17.00;79.70
78325;DHT22;67584;51.400;6.692;2023-07-16T05:01:15;17.00;79.10
78325;DHT22;67584;51.400;6.692;2023-07-16T05:03:41;17.00;78.90
78325;DHT22;67584;51.400;6.692;2023-07-16T05:06:07;17.10;78.80
78325;DHT22;67584;51.400;6.692;2023-07-16T05:08:33;17.10;79.00
78325;DHT22;67584;51.400;6.692;2023-07-16T05:10:58;17.10;78.40
78325;DHT22;67584;51.400;6.692;2023-07-16T05:13:24;17.20;79.00
78325;DHT22;67584;51.400;6.692;2023-07-16T05:15:50;17.20;78.80
78325;DHT22;67584;51.400;6.692;2023-07-16T05:18:16;17.20;78.30
78325;DHT22;67584;51.400;6.692;2023-07-16T05:20:41;17.30;78.50
78325;DHT22;67584;51.400;6.692;2023-07-16T05:23:09;17.30;78.30
78325;DHT22;67584;51.400;6.692;2023-07-16T05:25:34;17.40;77.80
78325;DHT22;67584;51.400;6.692;2023-07-16T05:28:00;17.50;77.50
78325;DHT22;67584;51.400;6.692;2023-07-16T05:30:26;17.70;77.10
78325;DHT22;67584;51.400;6.692;2023-07-16T05:32:51;17.70;77.30
78325;DHT22;67584;51.400;6.692;2023-07-16T05:35:17;17.80;76.20
78325;DHT22;67584;51.400;6.692;2023-07-16T05:37:43;17.90;76.10
78325;DHT22;67584;51.400;6.692;2023-07-16T05:40:08;18.00;74.40
78325;DHT22;67584;51.400;6.692;2023-07-16T05:42:34;18.10;74.60
78325;DHT22;67584;51.400;6.692;2023-07-16T05:45:00;18.10;73.40
78325;DHT22;67584;51.400;6.692;2023-07-16T05:47:26;18.10;73.30
78325;DHT22;67584;51.400;6.692;2023-07-16T05:49:51;18.10;73.20
78325;DHT22;67584;51.400;6.692;2023-07-16T05:52:17;18.20;73.90
78325;DHT22;67584;51.400;6.692;2023-07-16T05:54:46;18.20;72.60
78325;DHT22;67584;51.400;6.692;2023-07-16T05:57:11;18.20;73.10
78325;DHT22;67584;51.400;6.692;2023-07-16T05:59:37;18.30;72.70
78325;DHT22;67584;51.400;6.692;2023-07-16T06:02:06;18.30;72.80
78325;DHT22;67584;51.400;6.692;2023-07-16T06:04:32;18.40;71.70
78325;DHT22;67584;51.400;6.692;2023-07-16T06:06:58;18.50;71.50
78325;DHT22;67584;51.400;6.692;2023-07-16T06:09:23;18.50;71.40
78325;DHT22;67584;51.400;6.692;2023-07-16T06:11:49;18.50;70.20
78325;DHT22;67584;51.400;6.692;2023-07-16T06:14:15;18.60;71.60
78325;DHT22;67584;51.400;6.692;2023-07-16T06:16:41;18.60;70.70
78325;DHT22;67584;51.400;6.692;2023-07-16T06:19:07;18.60;68.90
78325;DHT22;67584;51.400;6.692;2023-07-16T06:21:32;18.70;68.80
78325;DHT22;67584;51.400;6.692;2023-07-16T06:23:58;18.70;68.80
78325;DHT22;67584;51.400;6.692;2023-07-16T06:26:24;18.70;68.40
78325;DHT22;67584;51.400;6.692;2023-07-16T06:28:49;18.70;68.10
78325;DHT22;67584;51.400;6.692;2023-07-16T06:31:18;18.90;67.40
78325;DHT22;67584;51.400;6.692;2023-07-16T06:33:44;18.80;67.20
78325;DHT22;67584;51.400;6.692;2023-07-16T06:36:12;18.80;67.20
78325;DHT22;67584;51.400;6.692;2023-07-16T06:38:38;18.80;66.80
78325;DHT22;67584;51.400;6.692;2023-07-16T06:41:04;18.80;66.40
78325;DHT22;67584;51.400;6.692;2023-07-16T06:43:29;19.10;66.40
78325;DHT22;67584;51.400;6.692;2023-07-16T06:45:55;19.10;64.50
78325;DHT22;67584;51.400;6.692;2023-07-16T06:48:21;19.00;65.50
78325;DHT22;67584;51.400;6.692;2023-07-16T06:50:46;19.10;65.40
78325;DHT22;67584;51.400;6.692;2023-07-16T06:53:12;19.20;65.00
78325;DHT22;67584;51.400;6.692;2023-07-16T06:55:38;19.40;64.50
78325;DHT22;67584;51.400;6.692;2023-07-16T06:58:03;19.50;65.70
78325;DHT22;67584;51.400;6.692;2023-07-16T07:00:29;19.40;64.50
78325;DHT22;67584;51.400;6.692;2023-07-16T07:02:55;19.40;63.40
78325;DHT22;67584;51.400;6.692;2023-07-16T07:05:21;19.40;65.50
78325;DHT22;67584;51.400;6.692;2023-07-16T07:07:47;19.40;64.40
78325;DHT22;67584;51.400;6.692;2023-07-16T07:10:13;19.30;64.00
78325;DHT22;67584;51.400;6.692;2023-07-16T07:12:39;19.40;63.90
78325;DHT22;67584;51.400;6.692;2023-07-16T07:15:08;19.50;63.00
78325;DHT22;67584;51.400;6.692;2023-07-16T07:17:35;19.50;62.80
78325;DHT22;67584;51.400;6.692;2023-07-16T07:20:01;19.60;63.60
78325;DHT22;67584;51.400;6.692;2023-07-16T07:22:27;19.60;62.70
78325;DHT22;67584;51.400;6.692;2023-07-16T07:24:53;19.90;62.80
78325;DHT22;67584;51.400;6.692;2023-07-16T07:27:18;19.80;62.50
78325;DHT22;67584;51.400;6.692;2023-07-16T07:29:44;19.80;60.90
78325;DHT22;67584;51.400;6.692;2023-07-16T07:32:11;19.60;62.10
78325;DHT22;67584;51.400;6.692;2023-07-16T07:34:38;19.70;62.10
78325;DHT22;67584;51.400;6.692;2023-07-16T07:37:05;19.70;62.40
78325;DHT22;67584;51.400;6.692;2023-07-16T07:39:31;20.00;62.20
78325;DHT22;67584;51.400;6.692;2023-07-16T07:41:57;19.90;61.80
78325;DHT22;67584;51.400;6.692;2023-07-16T07:44:23;20.10;62.20
78325;DHT22;67584;51.400;6.692;2023-07-16T07:46:48;20.10;60.30
78325;DHT22;67584;51.400;6.692;2023-07-16T07:49:14;20.50;60.00
78325;DHT22;67584;51.400;6.692;2023-07-16T07:51:39;20.20;59.20
78325;DHT22;67584;51.400;6.692;2023-07-16T07:54:05;20.40;60.80
78325;DHT22;67584;51.400;6.692;2023-07-16T07:56:31;20.30;58.80
78325;DHT22;67584;51.400;6.692;2023-07-16T07:58:56;20.70;59.80
78325;DHT22;67584;51.400;6.692;2023-07-16T08:01:22;20.60;59.70
78325;DHT22;67584;51.400;6.692;2023-07-16T08:03:48;20.50;58.00
78325;DHT22;67584;51.400;6.692;2023-07-16T08:06:13;20.70;58.70
78325;DHT22;67584;51.400;6.692;2023-07-16T08:08:39;20.90;59.30
78325;DHT22;67584;51.400;6.692;2023-07-16T08:11:05;21.10;58.20
78325;DHT22;67584;51.400;6.692;2023-07-16T08:13:30;21.20;57.40
78325;DHT22;67584;51.400;6.692;2023-07-16T08:15:56;21.10;58.00
78325;DHT22;67584;51.400;6.692;2023-07-16T08:18:22;21.10;57.60
78325;DHT22;67584;51.400;6.692;2023-07-16T08:20:47;21.10;57.50
78325;DHT22;67584;51.400;6.692;2023-07-16T08:23:13;21.50;56.70
78325;DHT22;67584;51.400;6.692;2023-07-16T08:25:39;21.60;55.40
78325;DHT22;67584;51.400;6.692;2023-07-16T08:28:04;22.00;55.60
78325;DHT22;67584;51.400;6.692;2023-07-16T08:30:32;21.80;54.70
78325;DHT22;67584;51.400;6.692;2023-07-16T08:32:58;21.50;54.80
78325;DHT22;67584;51.400;6.692;2023-07-16T08:35:24;21.40;54.80
78325;DHT22;67584;51.400;6.692;2023-07-16T08:37:49;21.70;55.20
78325;DHT22;67584;51.400;6.692;2023-07-16T08:40:15;21.90;53.60
78325;DHT22;67584;51.400;6.692;2023-07-16T08:42:44;21.70;52.30
78325;DHT22;67584;51.400;6.692;2023-07-16T08:45:11;21.90;53.90
78325;DHT22;67584;51.400;6.692;2023-07-16T08:47:37;21.90;54.20
78325;DHT22;67584;51.400;6.692;2023-07-16T08:50:03;21.90;53.10
78325;DHT22;67584;51.400;6.692;2023-07-16T08:52:29;21.80;54.20
78325;DHT22;67584;51.400;6.692;2023-07-16T08:54:56;21.70;54.70
78325;DHT22;67584;51.400;6.692;2023-07-16T08:57:22;22.00;53.50
78325;DHT22;67584;51.400;6.692;2023-07-16T08:59:49;22.30;52.70
78325;DHT22;67584;51.400;6.692;2023-07-16T09:02:18;21.70;54.30
78325;DHT22;67584;51.400;6.692;2023-07-16T09:04:48;21.80;53.70
78325;DHT22;67584;51.400;6.692;2023-07-16T09:07:15;22.20;53.40
78325;DHT22;67584;51.400;6.692;2023-07-16T09:09:41;22.30;53.20
78325;DHT22;67584;51.400;6.692;2023-07-16T09:12:11;22.70;52.20
78325;DHT22;67584;51.400;6.692;2023-07-16T09:14:37;22.30;51.70
78325;DHT22;67584;51.400;6.692;2023-07-16T09:17:03;22.20;52.30
78325;DHT22;67584;51.400;6.692;2023-07-16T09:19:32;22.50;53.40
78325;DHT22;67584;51.400;6.692;2023-07-16T09:21:57;22.60;52.20
78325;DHT22;67584;51.400;6.692;2023-07-16T09:24:23;22.10;53.60
78325;DHT22;67584;51.400;6.692;2023-07-16T09:26:50;21.90;54.00
78325;DHT22;67584;51.400;6.692;2023-07-16T09:29:16;21.90;54.40
78325;DHT22;67584;51.400;6.692;2023-07-16T09:31:59;22.20;53.20
78325;DHT22;67584;51.400;6.692;2023-07-16T09:34:29;22.10;53.10
78325;DHT22;67584;51.400;6.692;2023-07-16T09:36:59;22.30;52.20
78325;DHT22;67584;51.400;6.692;2023-07-16T09:39:26;22.90;51.60
78325;DHT22;67584;51.400;6.692;2023-07-16T09:41:52;23.00;50.60
78325;DHT22;67584;51.400;6.692;2023-07-16T09:44:18;23.10;50.80
78325;DHT22;67584;51.400;6.692;2023-07-16T09:46:45;22.90;50.30
78325;DHT22;67584;51.400;6.692;2023-07-16T09:49:14;23.00;50.70
78325;DHT22;67584;51.400;6.692;2023-07-16T09:51:39;23.10;50.20
78325;DHT22;67584;51.400;6.692;2023-07-16T09:54:05;23.30;49.90
78325;DHT22;67584;51.400;6.692;2023-07-16T09:56:36;22.70;49.90
78325;DHT22;67584;51.400;6.692;2023-07-16T09:59:07;22.50;50.40
78325;DHT22;67584;51.400;6.692;2023-07-16T10:01:37;22.70;50.60
78325;DHT22;67584;51.400;6.692;2023-07-16T10:04:19;23.10;49.90
78325;DHT22;67584;51.400;6.692;2023-07-16T10:07:00;22.90;50.40
78325;DHT22;67584;51.400;6.692;2023-07-16T10:09:42;22.80;50.00
78325;DHT22;67584;51.400;6.692;2023-07-16T10:12:17;23.40;49.50
78325;DHT22;67584;51.400;6.692;2023-07-16T10:14:44;23.60;49.50
78325;DHT22;67584;51.400;6.692;2023-07-16T10:17:23;23.20;49.40
78325;DHT22;67584;51.400;6.692;2023-07-16T10:19:56;23.40;48.90
78325;DHT22;67584;51.400;6.692;2023-07-16T10:27:33;24.60;47.20
78325;DHT22;67584;51.400;6.692;2023-07-16T10:30:00;24.30;46.70
78325;DHT22;67584;51.400;6.692;2023-07-16T10:32:29;24.70;46.50
78325;DHT22;67584;51.400;6.692;2023-07-16T10:34:55;24.80;46.20
78325;DHT22;67584;51.400;6.692;2023-07-16T10:37:22;25.00;45.90
78325;DHT22;67584;51.400;6.692;2023-07-16T10:39:55;24.50;46.50
78325;DHT22;67584;51.400;6.692;2023-07-16T10:42:22;23.50;48.60
78325;DHT22;67584;51.400;6.692;2023-07-16T10:44:49;23.40;48.90
78325;DHT22;67584;51.400;6.692;2023-07-16T10:47:22;23.50;49.40
78325;DHT22;67584;51.400;6.692;2023-07-16T10:49:48;23.30;49.40
78325;DHT22;67584;51.400;6.692;2023-07-16T10:52:14;23.00;49.70
78325;DHT22;67584;51.400;6.692;2023-07-16T10:54:40;23.00;49.30
78325;DHT22;67584;51.400;6.692;2023-07-16T10:57:06;23.00;49.30
78325;DHT22;67584;51.400;6.692;2023-07-16T10:59:32;23.00;49.20
78325;DHT22;67584;51.400;6.692;2023-07-16T11:01:58;23.30;48.30
78325;DHT22;67584;51.400;6.692;2023-07-16T11:04:24;23.40;48.40
78325;DHT22;67584;51.400;6.692;2023-07-16T11:06:50;23.30;48.40
78325;DHT22;67584;51.400;6.692;2023-07-16T11:09:16;23.00;48.50
78325;DHT22;67584;51.400;6.692;2023-07-16T11:11:41;22.90;48.60
78325;DHT22;67584;51.400;6.692;2023-07-16T11:14:07;23.10;49.00
78325;DHT22;67584;51.400;6.692;2023-07-16T11:16:37;23.20;47.90
78325;DHT22;67584;51.400;6.692;2023-07-16T11:19:06;23.30;48.90
78325;DHT22;67584;51.400;6.692;2023-07-16T11:21:36;23.00;48.30
78325;DHT22;67584;51.400;6.692;2023-07-16T11:24:09;22.80;49.10
78325;DHT22;67584;51.400;6.692;2023-07-16T11:26:35;22.50;49.80
78325;DHT22;67584;51.400;6.692;2023-07-16T11:29:01;22.70;49.40
78325;DHT22;67584;51.400;6.692;2023-07-16T11:31:39;22.80;49.30
78325;DHT22;67584;51.400;6.692;2023-07-16T11:34:07;22.70;48.40
78325;DHT22;67584;51.400;6.692;2023-07-16T11:36:33;22.90;49.20
78325;DHT22;67584;51.400;6.692;2023-07-16T11:38:59;23.30;48.90
78325;DHT22;67584;51.400;6.692;2023-07-16T11:41:28;24.10;47.80
78325;DHT22;67584;51.400;6.692;2023-07-16T11:43:54;24.00;47.80
78325;DHT22;67584;51.400;6.692;2023-07-16T11:46:19;23.70;48.20
78325;DHT22;67584;51.400;6.692;2023-07-16T11:48:45;23.30;48.70
78325;DHT22;67584;51.400;6.692;2023-07-16T11:51:11;23.40;48.20
78325;DHT22;67584;51.400;6.692;2023-07-16T11:53:36;23.70;48.00
78325;DHT22;67584;51.400;6.692;2023-07-16T11:56:02;23.90;47.40
78325;DHT22;67584;51.400;6.692;2023-07-16T11:58:28;23.90;48.00
78325;DHT22;67584;51.400;6.692;2023-07-16T12:00:53;23.50;48.10
78325;DHT22;67584;51.400;6.692;2023-07-16T12:03:19;23.30;48.20
78325;DHT22;67584;51.400;6.692;2023-07-16T12:05:45;23.40;48.30
78325;DHT22;67584;51.400;6.692;2023-07-16T12:08:10;23.70;48.30
78325;DHT22;67584;51.400;6.692;2023-07-16T12:10:40;23.80;48.20
78325;DHT22;67584;51.400;6.692;2023-07-16T12:13:06;24.00;47.40
78325;DHT22;67584;51.400;6.692;2023-07-16T12:15:32;23.80;48.90
78325;DHT22;67584;51.400;6.692;2023-07-16T12:17:59;23.60;48.80
78325;DHT22;67584;51.400;6.692;2023-07-16T12:20:25;23.50;49.60
78325;DHT22;67584;51.400;6.692;2023-07-16T12:22:51;23.50;49.40
78325;DHT22;67584;51.400;6.692;2023-07-16T12:25:18;23.80;48.80
78325;DHT22;67584;51.400;6.692;2023-07-16T12:27:45;24.30;47.00
78325;DHT22;67584;51.400;6.692;2023-07-16T12:30:10;24.50;47.20
78325;DHT22;67584;51.400;6.692;2023-07-16T12:32:36;24.70;45.60
78325;DHT22;67584;51.400;6.692;2023-07-16T12:35:02;24.50;46.10
78325;DHT22;67584;51.400;6.692;2023-07-16T12:37:30;24.60;46.40
78325;DHT22;67584;51.400;6.692;2023-07-16T12:39:55;24.60;45.90
78325;DHT22;67584;51.400;6.692;2023-07-16T12:42:21;24.20;46.70
78325;DHT22;67584;51.400;6.692;2023-07-16T12:44:47;23.90;46.70
78325;DHT22;67584;51.400;6.692;2023-07-16T12:47:15;24.00;46.50
78325;DHT22;67584;51.400;6.692;2023-07-16T12:49:40;24.50;46.90
78325;DHT22;67584;51.400;6.692;2023-07-16T12:52:07;25.30;45.70
78325;DHT22;67584;51.400;6.692;2023-07-16T12:54:33;25.50;44.90
78325;DHT22;67584;51.400;6.692;2023-07-16T12:56:58;25.50;45.80
78325;DHT22;67584;51.400;6.692;2023-07-16T12:59:24;25.40;46.20
78325;DHT22;67584;51.400;6.692;2023-07-16T13:01:50;25.10;47.20
78325;DHT22;67584;51.400;6.692;2023-07-16T13:04:16;25.10;46.40
78325;DHT22;67584;51.400;6.692;2023-07-16T13:06:42;25.80;45.50
78325;DHT22;67584;51.400;6.692;2023-07-16T13:09:08;25.90;44.90
78325;DHT22;67584;51.400;6.692;2023-07-16T13:11:33;26.40;44.20
78325;DHT22;67584;51.400;6.692;2023-07-16T13:13:59;26.10;43.00
78325;DHT22;67584;51.400;6.692;2023-07-16T13:16:25;25.70;44.00
78325;DHT22;67584;51.400;6.692;2023-07-16T13:18:52;25.60;44.40
78325;DHT22;67584;51.400;6.692;2023-07-16T13:21:17;26.60;42.60
78325;DHT22;67584;51.400;6.692;2023-07-16T13:23:43;28.30;39.70
78325;DHT22;67584;51.400;6.692;2023-07-16T13:26:09;29.70;37.40
78325;DHT22;67584;51.400;6.692;2023-07-16T13:28:34;28.50;38.30
78325;DHT22;67584;51.400;6.692;2023-07-16T13:31:00;27.50;39.40
78325;DHT22;67584;51.400;6.692;2023-07-16T13:33:25;27.10;40.20
78325;DHT22;67584;51.400;6.692;2023-07-16T13:35:51;26.40;41.20
78325;DHT22;67584;51.400;6.692;2023-07-16T13:38:17;26.00;42.00
78325;DHT22;67584;51.400;6.692;2023-07-16T13:40:42;26.20;41.70
78325;DHT22;67584;51.400;6.692;2023-07-16T13:43:08;27.90;39.30
78325;DHT22;67584;51.400;6.692;2023-07-16T13:45:34;29.60;36.20
78325;DHT22;67584;51.400;6.692;2023-07-16T13:47:59;29.30;36.60
78325;DHT22;67584;51.400;6.692;2023-07-16T13:50:25;28.90;37.70
78325;DHT22;67584;51.400;6.692;2023-07-16T13:52:51;29.80;35.70
78325;DHT22;67584;51.400;6.692;2023-07-16T13:55:17;30.00;35.00
78325;DHT22;67584;51.400;6.692;2023-07-16T13:57:43;31.10;33.80
78325;DHT22;67584;51.400;6.692;2023-07-16T14:00:09;30.70;33.30
78325;DHT22;67584;51.400;6.692;2023-07-16T14:02:36;30.10;33.90
78325;DHT22;67584;51.400;6.692;2023-07-16T14:05:02;30.20;33.80
78325;DHT22;67584;51.400;6.692;2023-07-16T14:07:28;29.00;35.20
78325;DHT22;67584;51.400;6.692;2023-07-16T14:09:54;28.20;36.40
78325;DHT22;67584;51.400;6.692;2023-07-16T14:12:19;28.30;36.00
78325;DHT22;67584;51.400;6.692;2023-07-16T14:14:45;28.30;36.80
78325;DHT22;67584;51.400;6.692;2023-07-16T14:17:11;28.50;36.80
78325;DHT22;67584;51.400;6.692;2023-07-16T14:19:36;29.60;35.20
78325;DHT22;67584;51.400;6.692;2023-07-16T14:22:02;31.10;33.30
78325;DHT22;67584;51.400;6.692;2023-07-16T14:24:28;32.00;33.00
78325;DHT22;67584;51.400;6.692;2023-07-16T14:26:58;33.40;30.80
78325;DHT22;67584;51.400;6.692;2023-07-16T14:29:24;33.20;29.00
78325;DHT22;67584;51.400;6.692;2023-07-16T14:31:50;32.90;29.10
78325;DHT22;67584;51.400;6.692;2023-07-16T14:34:15;31.70;30.90
78325;DHT22;67584;51.400;6.692;2023-07-16T14:36:41;30.80;31.80
78325;DHT22;67584;51.400;6.692;2023-07-16T14:39:07;29.70;32.10
78325;DHT22;67584;51.400;6.692;2023-07-16T14:41:33;30.30;32.00
78325;DHT22;67584;51.400;6.692;2023-07-16T14:43:58;31.10;31.30
78325;DHT22;67584;51.400;6.692;2023-07-16T14:46:24;31.50;31.10
78325;DHT22;67584;51.400;6.692;2023-07-16T14:48:50;31.00;31.10
78325;DHT22;67584;51.400;6.692;2023-07-16T14:51:20;29.30;33.10
78325;DHT22;67584;51.400;6.692;2023-07-16T14:53:46;28.40;35.20
78325;DHT22;67584;51.400;6.692;2023-07-16T14:56:11;27.40;36.90
78325;DHT22;67584;51.400;6.692;2023-07-16T14:58:37;26.90;37.30
78325;DHT22;67584;51.400;6.692;2023-07-16T15:01:03;27.40;37.00
78325;DHT22;67584;51.400;6.692;2023-07-16T15:03:36;28.40;35.30
78325;DHT22;67584;51.400;6.692;2023-07-16T15:06:03;28.20;35.70
78325;DHT22;67584;51.400;6.692;2023-07-16T15:08:29;28.00;36.50
78325;DHT22;67584;51.400;6.692;2023-07-16T15:10:57;26.60;38.00
78325;DHT22;67584;51.400;6.692;2023-07-16T15:13:22;26.80;38.00
78325;DHT22;67584;51.400;6.692;2023-07-16T15:15:51;27.20;37.60
78325;DHT22;67584;51.400;6.692;2023-07-16T15:18:21;26.90;37.80
78325;DHT22;67584;51.400;6.692;2023-07-16T15:20:47;26.70;38.10
78325;DHT22;67584;51.400;6.692;2023-07-16T15:23:13;26.40;38.80
78325;DHT22;67584;51.400;6.692;2023-07-16T15:25:42;26.00;39.00
78325;DHT22;67584;51.400;6.692;2023-07-16T15:28:09;26.30;39.40
78325;DHT22;67584;51.400;6.692;2023-07-16T15:30:36;26.70;39.10
78325;DHT22;67584;51.400;6.692;2023-07-16T15:33:01;27.30;38.70
78325;DHT22;67584;51.400;6.692;2023-07-16T15:35:27;29.10;36.30
78325;DHT22;67584;51.400;6.692;2023-07-16T15:37:53;30.90;33.60